Benvolgut visitant, si us plau, ingressa Recuperar contrasenya
AVAMET paisatges
Union Alcoyana

Bigastre Lo Chusco

Dades diàries. Acumulats / Últims 30 dies disponibles

Data Temperatura (°C) Humitat rel. (%) Pressió rel. (hPa) Vent (km/h) Precipitació
Mínima Mitjana Màxima Amplitud
tèrmica
Mínima Mitjana Màxima Mínima Mitjana Màxima Predom. Mitjana Ràfega
màxima
Total
(mm)
Índex-n
Mínima Mitjana Màxima Mínima Mitjana Màxima n
0 a 1
P0 max
mm 5'
Dades mensuals acumulades fins l'últim dia disponible
05/2022 12,1 14,8 19,3 19,9 16,6 25,9 30,1 18,0 33 68 96 1.019 1.028 1.034   6,6 46,0 43,2
Dades anuals acumulades fins l'últim dia disponible
2022 2,8 10,2 19,3 14,4 10,1 19,4 30,1 27,3 11 70 99 991 1.013 1.034   8,8 73,4 515,4
Últims 30 dies disponibles
20-05-2022 19,3     24,1     29,0 9,7 43 59 75 1.030 1.031 1.032 SSE 11,8 46,0 0,0
19-05-2022 16,9     22,7     28,1 11,2 43 63 82 1.028 1.029 1.031 SE 8,6 36,7 0,0
18-05-2022 17,9     23,4     29,0 11,1 44 65 84 1.026 1.028 1.029 SE 5,0 31,4 0,0
17-05-2022 17,6     23,3     30,1 12,5 43 67 85 1.026 1.028 1.029 SE 4,8 29,5 0,0
16-05-2022 17,2     22,9     29,2 12,0 45 71 92 1.026 1.028 1.029 SSE 4,8 21,9 0,0
15-05-2022 14,9     21,5     28,2 13,3 36 62 88 1.025 1.026 1.027 S 5,7 29,5 0,0
14-05-2022 15,3     21,1     27,7 12,4 34 64 94 1.026 1.028 1.030 SSE 5,0 23,8 0,0
13-05-2022 15,9     20,5     26,3 10,4 48 73 94 1.029 1.030 1.031 S 7,1 33,2 0,0
12-05-2022 13,2     18,9     24,4 11,2 47 74 95 1.029 1.030 1.031 SSE 7,4 33,2 0,0
11-05-2022 13,1     19,1     25,7 12,6 39 66 88 1.029 1.031 1.033 SSE 5,1 33,2 0,0
10-05-2022 13,5     19,5     25,7 12,2 40 60 80 1.031 1.033 1.034 S 5,2 25,6 0,0
09-05-2022 14,1     19,1     25,4 11,3 37 66 93 1.030 1.031 1.033 SE 5,4 29,5 0,0
08-05-2022 13,2     19,4     26,9 13,7 33 61 88 1.027 1.029 1.030 SSE 5,4 29,5 0,0
07-05-2022 13,2     18,7     25,0 11,8 38 64 85 1.028 1.030 1.031 S 6,4 29,5 0,0
06-05-2022 12,1     17,5     24,4 12,3 51 73 92 1.028 1.030 1.032 S 6,7 29,5 0,0
05-05-2022 13,2     17,6     24,1 10,9 52 68 93 1.027 1.029 1.032 WSW 7,5 27,7 21,6
04-05-2022 13,3     14,4     16,6 3,3 86 93 96 1.022 1.024 1.027 SW 6,0 36,7 21,6 0,36 2,10
03-05-2022 12,9     16,9     22,2 9,3 54 77 91 1.019 1.020 1.023 SW 7,2 33,2 0,0
02-05-2022 15,5     17,4     22,0 6,5 59 79 91 1.019 1.022 1.025 E 8,5 33,2 0,0
01-05-2022 14,4     20,0     27,6 13,2 41 60 71 1.024 1.027 1.030 SSW 8,2 33,2 0,0
30-04-2022 12,5     19,4     26,9 14,4 34 56 85 1.028 1.031 1.033 SW 9,6 31,4 0,0
29-04-2022 12,9     16,9     21,6 8,7 46 67 84 1.030 1.032 1.034 SSW 10,7 40,4 4,8
28-04-2022 12,0     13,9     15,5 3,5 73 90 98 1.027 1.029 1.032 SSW 4,5 25,6 4,8 0,54 1,70
27-04-2022 13,3     14,9     18,1 4,8 51 77 95 1.024 1.026 1.029 SW 6,3 21,9 1,8 0,12 0,30
26-04-2022 11,1     15,4     21,0 9,9 41 71 91 1.023 1.024 1.025 SSE 5,7 27,7 0,0
25-04-2022 11,7     16,8     22,1 10,4 40 68 86 1.021 1.022 1.024 ESE 5,4 27,7 0,0
24-04-2022 9,6     16,6     24,0 14,4 35 55 76 1.020 1.021 1.023 SW 8,6 29,5 0,3
23-04-2022 11,8     16,7     20,9 9,1 29 53 84 1.009 1.014 1.020 SW 22,0 69,8 0,3
22-04-2022 11,4     15,9     19,1 7,7 51 62 73 1.009 1.013 1.016 SW 7,1 38,5 0,0
21-04-2022 11,7     16,3     21,6 9,9 36 51 65 1.014 1.015 1.017 WSW 16,8 68,1 7,8
Últims 13 mesos disponibles
04/2022 5,7 11,5 16,2 15,7 10,1 20,4 27,8 22,1 37 66 90 1.000 1.011 1.032 SW 10,6 69,8 142,0
03/2022 6,8 10,8 17,9 13,8 13,1 17,7 22,0 15,2 53 79 97 993 1.007 1.016 SW 10,5 68,1 281,8
02/2022 5,6 8,8 12,3 13,4 14,8 18,9 25,0 19,4 42 68 88 1.002 1.013 1.018 SSW 7,6 49,7 10,5
01/2022 2,8 6,7 14,2 11,1 10,9 16,6 24,1 21,3 28 70 93 1.003 1.012 1.017 SW 7,9 73,4 37,9
12/2021 6,6 10,7 15,8 14,3 12,6 18,4 24,7 18,1 44 67 88 998 1.008 1.015 SW 10,4 82,7 1,6
11/2021 7,4 10,9 20,8 14,6 13,6 19,1 26,6 19,2 43 63 91 994 1.005 1.017 SW 11,0 66,3 42,1
10/2021 13,2 16,0 19,7 20,0 20,7 25,4 31,0 17,8 50 76 89 1.000 1.011 1.020 S 5,8 58,7 61,7
09/2021 16,6 20,7 24,2 24,9 25,8 30,5 35,5 18,9 50 71 83 1.011 1.015 1.021 SSW 6,7 51,5 19,9
08/2021 20,4 22,9 25,8 27,3 28,9 33,0 42,2 21,8 53 70 81 1.003 1.012 1.016 ENE 7,4 53,3 0,0
07/2021 19,7 21,7 23,9 26,7 28,4 32,8 42,8 23,1 48 68 86 1.003 1.010 1.016 E 7,0 56,8 3,5
06/2021 15,2 19,0 22,3 23,6 24,7 28,9 33,6 18,4 45 67 88 1.005 1.012 1.017 ENE 7,7 68,1 27,2
05/2021 12,6 15,2 19,1 20,2 19,4 25,7 35,0 22,4 39 65 89 1.004 1.012 1.019 SW 8,4 62,3 69,8
04/2021 7,9 12,3 15,0 15,8 13,7 20,6 28,3 20,4 53 75 90 1.002 1.011 1.020 ENE 7,7 66,3 122,9
Tots els anys disponibles
2021 1,8 14,7 25,8 18,9 8,3 24,0 42,8 41,0 39 68 93 994 1.012 1.030 SW 8,4 108,3 490,8
Temperatura (°C)
Humitat relativa (%)
Velocitat del vent i ràfega màxima (km/h)
Direcció del vent (°)
Pressió (hPa)
Precipitació (mm)
Nota sobre les dades: s'avisa a l'usuari de la provisionalitat i no oficialitat d'aquestes dades
Logo AVAMET blanc
Web allotjada a Sollutia
Llicència de Creative CommonsLa web d'AVAMET i els seus continguts estan subjectes a una llicència de
Reconeixement - No Comercial - Compartir igual
Avís legal - Política de privacitat - Política de cookies
NOVES ESTACIONS:  Vila-real - les Solaes (Soci), Calles - Parque de Emergencias (Soci), Bocairent - els Corrals (Soci), Sella - el Xarquer, Xàbia - Far del Cap de la Nau (Soci), Benicàssim - Quadre de Santiago (Soci), Sant Mateu - IES Maestrat (Soci)  / el Palomar (Ajuntament/Soci) / Atzeneta del Maestrat - Pla de Meanes (Ajuntament/Soci) / Onda - Sant Gil (Soci) / Onda - Ràtils CR Cota 220 (Soci) / la Vila Joiosa (Ajuntament/Soci) / Miramar - Platja (Ajuntament/Soci) / Massanassa - IES Massanassa (Soci) / Culla - Pla de les Vinyes (Ajuntament/Soci) - - -